Aeroporto :
LOGIN :

Iscrizione | Disclaimer

   EN    FR    IT 

 










Sommario :    VFR   VFR Marginale   IFR   IFR Intensivo   IFR Molto Intensivo
Visibilità : 
Base nubi : 
>= 8 km
>= 3000ft
5 / 8 km
1000 / 3000 ft
1500m / 5 km
500 / 1000 ft
800 / 1500m
200 / 500 ft
< 800m
< 200 ft
Simboli :   Temporali  Nebbia  Neve Forte  Precipitazioni Forti  Vento > 20 kt
SIGMETs :   Varie  Temporali  Ghiacco  Turbolenza  Onda orograficha  Ceneri Vulcaniche







- Altitudine del aeroporto : 1487 ft
- Codice IATA : MUC


EDDM - München Franz Josef Strauss

ULTIMO METAR :
  • 230920Z 09012KT CAVOK 16/06 Q1001 NOSIG

METARs OBSOLETI :
  • 230850Z 09012KT CAVOK 14/05 Q1001 NOSIG
  • 230820Z 09012KT CAVOK 14/05 Q1001 NOSIG
  • 230750Z 09013KT CAVOK 13/05 Q1001 NOSIG
  • 230720Z 09012KT CAVOK 13/05 Q1001 NOSIG
  • 230650Z 08012KT CAVOK 12/05 Q1001 NOSIG

TAF TAF EDDM
Valido dal 23 a 06 ore il 24 a 12 ore UTC


230500Z 2306/2412 08008KT CAVOK
BECMG 2307/2309 10013KT
BECMG 2318/2320 10008KT
BECMG 2322/2324 VRB03KT
BECMG 2407/2409 15005KT
Nessun NOTAM noto per questo aeroporto.



MetMap, La meteo Aeronautica in un colpo d'occhio ! - Copyright ORBIFLY Dicembre 2007 - Disclaimer

ORBIFLY MET'MAP TEAM :

Programmazione e sviluppo : Alexandra Zaïnal
Concezione e sviluppo : Baudouin d'Aumeries
Co-Programmazione e sviluppo : Marc-Olivier Méhu
Supporto tecnico e logistico : Manuel Goepfert
Aiuto per la traduzione : Arnaldo La Scala

Contatto : metmap@orbifly.com




FONTI E CREDITI :

   NOAA